sensor_id;sensor_type;location;lat;lon;timestamp;temperature;humidity
20231;DHT22;10274;49.022;9.338;2022-07-29T00:01:39;18.00;1.00
20231;DHT22;10274;49.022;9.338;2022-07-29T00:04:06;18.00;1.00
20231;DHT22;10274;49.022;9.338;2022-07-29T00:06:33;17.70;1.00
20231;DHT22;10274;49.022;9.338;2022-07-29T00:09:00;17.80;1.00
20231;DHT22;10274;49.022;9.338;2022-07-29T00:11:26;17.90;1.00
20231;DHT22;10274;49.022;9.338;2022-07-29T00:13:53;17.80;1.00
20231;DHT22;10274;49.022;9.338;2022-07-29T00:16:20;17.60;1.00
20231;DHT22;10274;49.022;9.338;2022-07-29T00:18:48;17.40;25.70
20231;DHT22;10274;49.022;9.338;2022-07-29T00:21:14;17.30;39.80
20231;DHT22;10274;49.022;9.338;2022-07-29T00:23:41;17.30;36.70
20231;DHT22;10274;49.022;9.338;2022-07-29T00:26:08;17.40;34.90
20231;DHT22;10274;49.022;9.338;2022-07-29T00:28:35;17.40;32.10
20231;DHT22;10274;49.022;9.338;2022-07-29T00:31:01;17.60;10.20
20231;DHT22;10274;49.022;9.338;2022-07-29T00:33:28;17.20;17.60
20231;DHT22;10274;49.022;9.338;2022-07-29T00:35:57;17.00;44.80
20231;DHT22;10274;49.022;9.338;2022-07-29T00:38:22;16.90;50.90
20231;DHT22;10274;49.022;9.338;2022-07-29T00:40:49;16.80;70.90
20231;DHT22;10274;49.022;9.338;2022-07-29T00:43:17;16.90;63.00
20231;DHT22;10274;49.022;9.338;2022-07-29T00:45:44;16.90;73.90
20231;DHT22;10274;49.022;9.338;2022-07-29T00:48:11;16.90;73.10
20231;DHT22;10274;49.022;9.338;2022-07-29T00:50:38;16.80;77.30
20231;DHT22;10274;49.022;9.338;2022-07-29T00:53:07;16.80;81.60
20231;DHT22;10274;49.022;9.338;2022-07-29T00:55:34;16.70;91.70
20231;DHT22;10274;49.022;9.338;2022-07-29T00:58:01;16.70;86.80
20231;DHT22;10274;49.022;9.338;2022-07-29T01:00:28;16.80;89.00
20231;DHT22;10274;49.022;9.338;2022-07-29T01:02:55;16.70;81.50
20231;DHT22;10274;49.022;9.338;2022-07-29T01:05:24;16.70;90.00
20231;DHT22;10274;49.022;9.338;2022-07-29T01:07:54;16.60;90.60
20231;DHT22;10274;49.022;9.338;2022-07-29T01:10:23;16.80;86.30
20231;DHT22;10274;49.022;9.338;2022-07-29T01:12:51;16.60;83.60
20231;DHT22;10274;49.022;9.338;2022-07-29T01:15:19;16.60;92.30
20231;DHT22;10274;49.022;9.338;2022-07-29T01:17:50;16.40;98.70
20231;DHT22;10274;49.022;9.338;2022-07-29T01:20:25;16.40;99.90
20231;DHT22;10274;49.022;9.338;2022-07-29T01:26:31;16.40;98.90
20231;DHT22;10274;49.022;9.338;2022-07-29T01:29:03;16.40;96.20
20231;DHT22;10274;49.022;9.338;2022-07-29T01:31:35;16.30;95.70
20231;DHT22;10274;49.022;9.338;2022-07-29T01:34:07;16.20;99.90
20231;DHT22;10274;49.022;9.338;2022-07-29T01:36:36;16.30;99.90
20231;DHT22;10274;49.022;9.338;2022-07-29T01:39:07;16.30;99.90
20231;DHT22;10274;49.022;9.338;2022-07-29T01:41:38;16.30;99.90
20231;DHT22;10274;49.022;9.338;2022-07-29T01:44:18;16.40;92.80
20231;DHT22;10274;49.022;9.338;2022-07-29T01:46:53;16.30;92.90
20231;DHT22;10274;49.022;9.338;2022-07-29T01:49:24;16.20;95.60
20231;DHT22;10274;49.022;9.338;2022-07-29T01:51:56;16.10;99.90
20231;DHT22;10274;49.022;9.338;2022-07-29T01:54:29;16.20;99.90
20231;DHT22;10274;49.022;9.338;2022-07-29T01:56:58;16.30;97.90
20231;DHT22;10274;49.022;9.338;2022-07-29T01:59:27;16.30;98.80
20231;DHT22;10274;49.022;9.338;2022-07-29T02:01:57;16.20;99.90
20231;DHT22;10274;49.022;9.338;2022-07-29T02:04:26;16.20;99.90
20231;DHT22;10274;49.022;9.338;2022-07-29T02:06:57;16.20;99.90
20231;DHT22;10274;49.022;9.338;2022-07-29T02:09:25;16.20;99.90
20231;DHT22;10274;49.022;9.338;2022-07-29T02:11:54;16.10;99.90
20231;DHT22;10274;49.022;9.338;2022-07-29T02:14:23;15.90;99.90
20231;DHT22;10274;49.022;9.338;2022-07-29T02:16:54;16.10;99.90
20231;DHT22;10274;49.022;9.338;2022-07-29T02:19:23;16.10;99.90
20231;DHT22;10274;49.022;9.338;2022-07-29T02:21:53;16.10;98.60
20231;DHT22;10274;49.022;9.338;2022-07-29T02:24:22;16.10;97.60
20231;DHT22;10274;49.022;9.338;2022-07-29T02:26:50;16.10;97.80
20231;DHT22;10274;49.022;9.338;2022-07-29T02:29:19;15.90;99.90
20231;DHT22;10274;49.022;9.338;2022-07-29T02:31:49;15.90;99.90
20231;DHT22;10274;49.022;9.338;2022-07-29T02:34:20;15.90;94.30
20231;DHT22;10274;49.022;9.338;2022-07-29T02:36:48;16.00;97.60
20231;DHT22;10274;49.022;9.338;2022-07-29T02:39:17;16.00;91.30
20231;DHT22;10274;49.022;9.338;2022-07-29T02:41:46;15.90;99.90
20231;DHT22;10274;49.022;9.338;2022-07-29T02:44:15;15.90;98.00
20231;DHT22;10274;49.022;9.338;2022-07-29T02:46:47;15.90;92.60
20231;DHT22;10274;49.022;9.338;2022-07-29T02:49:22;16.00;94.80
20231;DHT22;10274;49.022;9.338;2022-07-29T02:51:54;16.00;89.50
20231;DHT22;10274;49.022;9.338;2022-07-29T02:54:27;16.00;97.60
20231;DHT22;10274;49.022;9.338;2022-07-29T02:56:59;15.90;99.90
20231;DHT22;10274;49.022;9.338;2022-07-29T02:59:27;15.60;99.00
20231;DHT22;10274;49.022;9.338;2022-07-29T03:01:57;15.50;99.90
20231;DHT22;10274;49.022;9.338;2022-07-29T03:04:27;15.40;99.90
20231;DHT22;10274;49.022;9.338;2022-07-29T03:06:55;15.50;99.90
20231;DHT22;10274;49.022;9.338;2022-07-29T03:09:25;15.50;99.90
20231;DHT22;10274;49.022;9.338;2022-07-29T03:11:52;15.60;99.90
20231;DHT22;10274;49.022;9.338;2022-07-29T03:14:20;15.50;99.90
20231;DHT22;10274;49.022;9.338;2022-07-29T03:16:49;15.60;99.90
20231;DHT22;10274;49.022;9.338;2022-07-29T03:19:17;15.60;99.90
20231;DHT22;10274;49.022;9.338;2022-07-29T03:21:45;15.60;99.90
20231;DHT22;10274;49.022;9.338;2022-07-29T03:24:27;15.60;99.90
20231;DHT22;10274;49.022;9.338;2022-07-29T03:26:55;15.50;99.90
20231;DHT22;10274;49.022;9.338;2022-07-29T03:29:22;15.50;99.90
20231;DHT22;10274;49.022;9.338;2022-07-29T03:31:49;15.50;99.90
20231;DHT22;10274;49.022;9.338;2022-07-29T03:34:16;15.60;99.90
20231;DHT22;10274;49.022;9.338;2022-07-29T03:36:46;15.40;99.90
20231;DHT22;10274;49.022;9.338;2022-07-29T03:39:15;15.40;99.90
20231;DHT22;10274;49.022;9.338;2022-07-29T03:41:44;15.40;99.90
20231;DHT22;10274;49.022;9.338;2022-07-29T03:44:13;15.50;99.90
20231;DHT22;10274;49.022;9.338;2022-07-29T03:46:41;15.10;99.90
20231;DHT22;10274;49.022;9.338;2022-07-29T03:49:11;15.20;99.90
20231;DHT22;10274;49.022;9.338;2022-07-29T03:51:38;15.20;99.90
20231;DHT22;10274;49.022;9.338;2022-07-29T03:54:07;15.30;99.90
20231;DHT22;10274;49.022;9.338;2022-07-29T03:56:37;15.30;99.90
20231;DHT22;10274;49.022;9.338;2022-07-29T03:59:04;15.10;99.90
20231;DHT22;10274;49.022;9.338;2022-07-29T04:01:33;15.20;99.90
20231;DHT22;10274;49.022;9.338;2022-07-29T04:04:01;15.20;99.90
20231;DHT22;10274;49.022;9.338;2022-07-29T04:06:27;15.20;99.90
20231;DHT22;10274;49.022;9.338;2022-07-29T04:08:54;15.20;99.90
20231;DHT22;10274;49.022;9.338;2022-07-29T04:11:22;15.20;99.90
20231;DHT22;10274;49.022;9.338;2022-07-29T04:13:49;15.20;99.90
20231;DHT22;10274;49.022;9.338;2022-07-29T04:16:15;15.30;99.90
20231;DHT22;10274;49.022;9.338;2022-07-29T04:18:42;15.30;99.90
20231;DHT22;10274;49.022;9.338;2022-07-29T04:21:08;15.30;99.90
20231;DHT22;10274;49.022;9.338;2022-07-29T04:23:35;15.20;99.90
20231;DHT22;10274;49.022;9.338;2022-07-29T04:26:02;15.30;99.90
20231;DHT22;10274;49.022;9.338;2022-07-29T04:28:30;15.40;99.90
20231;DHT22;10274;49.022;9.338;2022-07-29T04:30:56;15.70;99.90
20231;DHT22;10274;49.022;9.338;2022-07-29T04:33:23;15.80;99.90
20231;DHT22;10274;49.022;9.338;2022-07-29T04:35:50;15.90;99.90
20231;DHT22;10274;49.022;9.338;2022-07-29T04:38:16;16.00;99.90
20231;DHT22;10274;49.022;9.338;2022-07-29T04:40:43;16.10;99.90
20231;DHT22;10274;49.022;9.338;2022-07-29T04:43:10;16.20;99.90
20231;DHT22;10274;49.022;9.338;2022-07-29T04:45:38;16.30;99.90
20231;DHT22;10274;49.022;9.338;2022-07-29T04:48:05;16.40;99.90
20231;DHT22;10274;49.022;9.338;2022-07-29T04:50:32;16.40;99.90
20231;DHT22;10274;49.022;9.338;2022-07-29T04:52:59;16.50;99.90
20231;DHT22;10274;49.022;9.338;2022-07-29T04:55:25;16.40;99.90
20231;DHT22;10274;49.022;9.338;2022-07-29T04:57:52;16.40;99.90
20231;DHT22;10274;49.022;9.338;2022-07-29T05:00:19;16.40;99.90
20231;DHT22;10274;49.022;9.338;2022-07-29T05:02:47;16.50;99.90
20231;DHT22;10274;49.022;9.338;2022-07-29T05:05:13;16.50;99.90
20231;DHT22;10274;49.022;9.338;2022-07-29T05:07:40;16.50;99.90
20231;DHT22;10274;49.022;9.338;2022-07-29T05:10:08;16.50;99.90
20231;DHT22;10274;49.022;9.338;2022-07-29T05:12:35;16.50;99.90
20231;DHT22;10274;49.022;9.338;2022-07-29T05:15:01;16.50;99.90
20231;DHT22;10274;49.022;9.338;2022-07-29T05:17:28;16.60;99.90
20231;DHT22;10274;49.022;9.338;2022-07-29T05:19:56;16.60;99.90
20231;DHT22;10274;49.022;9.338;2022-07-29T05:22:23;16.70;99.90
20231;DHT22;10274;49.022;9.338;2022-07-29T05:24:50;16.80;99.90
20231;DHT22;10274;49.022;9.338;2022-07-29T05:27:16;17.00;99.90
20231;DHT22;10274;49.022;9.338;2022-07-29T05:29:43;17.10;99.90
20231;DHT22;10274;49.022;9.338;2022-07-29T05:32:10;17.20;99.90
20231;DHT22;10274;49.022;9.338;2022-07-29T05:34:37;17.30;99.90
20231;DHT22;10274;49.022;9.338;2022-07-29T05:37:05;17.30;99.90
20231;DHT22;10274;49.022;9.338;2022-07-29T05:39:31;17.50;99.90
20231;DHT22;10274;49.022;9.338;2022-07-29T05:41:58;17.70;99.90
20231;DHT22;10274;49.022;9.338;2022-07-29T05:44:25;17.90;94.00
20231;DHT22;10274;49.022;9.338;2022-07-29T05:46:51;18.10;84.30
20231;DHT22;10274;49.022;9.338;2022-07-29T05:49:18;18.30;63.10
20231;DHT22;10274;49.022;9.338;2022-07-29T05:51:45;18.50;50.40
20231;DHT22;10274;49.022;9.338;2022-07-29T05:54:14;18.80;24.00
20231;DHT22;10274;49.022;9.338;2022-07-29T05:56:41;18.90;20.40
20231;DHT22;10274;49.022;9.338;2022-07-29T05:59:07;19.10;1.50
20231;DHT22;10274;49.022;9.338;2022-07-29T06:01:34;19.30;4.30
20231;DHT22;10274;49.022;9.338;2022-07-29T06:04:04;19.50;1.00
20231;DHT22;10274;49.022;9.338;2022-07-29T06:06:31;19.70;1.00
20231;DHT22;10274;49.022;9.338;2022-07-29T06:08:58;20.10;1.00
20231;DHT22;10274;49.022;9.338;2022-07-29T06:11:26;20.20;1.00
20231;DHT22;10274;49.022;9.338;2022-07-29T06:13:53;20.50;1.00
20231;DHT22;10274;49.022;9.338;2022-07-29T06:16:20;20.60;1.00
20231;DHT22;10274;49.022;9.338;2022-07-29T06:18:47;20.60;1.00
20231;DHT22;10274;49.022;9.338;2022-07-29T06:21:13;20.60;1.00
20231;DHT22;10274;49.022;9.338;2022-07-29T06:23:40;20.70;1.00
20231;DHT22;10274;49.022;9.338;2022-07-29T06:26:07;20.90;1.00
20231;DHT22;10274;49.022;9.338;2022-07-29T06:28:35;21.00;1.00
20231;DHT22;10274;49.022;9.338;2022-07-29T06:31:02;21.20;1.00
20231;DHT22;10274;49.022;9.338;2022-07-29T06:33:29;21.30;1.00
20231;DHT22;10274;49.022;9.338;2022-07-29T06:35:56;21.50;1.00
20231;DHT22;10274;49.022;9.338;2022-07-29T06:38:23;21.50;1.00
20231;DHT22;10274;49.022;9.338;2022-07-29T06:40:50;21.50;1.00
20231;DHT22;10274;49.022;9.338;2022-07-29T06:43:31;21.60;1.00
20231;DHT22;10274;49.022;9.338;2022-07-29T06:46:01;21.90;1.00
20231;DHT22;10274;49.022;9.338;2022-07-29T06:48:28;22.00;1.00
20231;DHT22;10274;49.022;9.338;2022-07-29T06:50:55;21.70;1.00
20231;DHT22;10274;49.022;9.338;2022-07-29T06:53:22;21.60;1.00
20231;DHT22;10274;49.022;9.338;2022-07-29T06:55:49;21.70;99.90
20231;DHT22;10274;49.022;9.338;2022-07-29T06:58:16;21.80;1.00
20231;DHT22;10274;49.022;9.338;2022-07-29T07:00:45;21.80;1.00
20231;DHT22;10274;49.022;9.338;2022-07-29T07:03:13;21.70;1.00
20231;DHT22;10274;49.022;9.338;2022-07-29T07:05:40;21.80;99.90
20231;DHT22;10274;49.022;9.338;2022-07-29T07:08:06;21.80;99.90
20231;DHT22;10274;49.022;9.338;2022-07-29T07:10:33;21.80;1.00
20231;DHT22;10274;49.022;9.338;2022-07-29T07:13:00;21.70;99.90
20231;DHT22;10274;49.022;9.338;2022-07-29T07:15:28;21.70;99.90
20231;DHT22;10274;49.022;9.338;2022-07-29T07:17:54;21.80;99.90
20231;DHT22;10274;49.022;9.338;2022-07-29T07:20:23;22.00;99.90
20231;DHT22;10274;49.022;9.338;2022-07-29T07:22:50;22.00;99.90
20231;DHT22;10274;49.022;9.338;2022-07-29T07:25:16;22.10;99.90
20231;DHT22;10274;49.022;9.338;2022-07-29T07:27:43;22.10;99.90
20231;DHT22;10274;49.022;9.338;2022-07-29T07:30:10;22.50;99.90
20231;DHT22;10274;49.022;9.338;2022-07-29T07:32:38;22.80;1.00
20231;DHT22;10274;49.022;9.338;2022-07-29T07:35:06;22.80;1.00
20231;DHT22;10274;49.022;9.338;2022-07-29T07:37:35;22.90;1.00
20231;DHT22;10274;49.022;9.338;2022-07-29T07:40:02;23.10;1.00
20231;DHT22;10274;49.022;9.338;2022-07-29T07:42:30;23.20;1.00
20231;DHT22;10274;49.022;9.338;2022-07-29T07:44:56;23.20;1.00
20231;DHT22;10274;49.022;9.338;2022-07-29T07:47:23;23.30;1.00
20231;DHT22;10274;49.022;9.338;2022-07-29T07:49:50;23.90;1.00
20231;DHT22;10274;49.022;9.338;2022-07-29T07:52:18;24.10;1.00
20231;DHT22;10274;49.022;9.338;2022-07-29T07:54:47;23.80;1.00
20231;DHT22;10274;49.022;9.338;2022-07-29T07:57:14;24.10;1.00
20231;DHT22;10274;49.022;9.338;2022-07-29T07:59:41;24.30;1.00
20231;DHT22;10274;49.022;9.338;2022-07-29T08:02:08;24.30;1.00
20231;DHT22;10274;49.022;9.338;2022-07-29T08:04:35;24.40;1.00
20231;DHT22;10274;49.022;9.338;2022-07-29T08:07:03;24.40;1.00
20231;DHT22;10274;49.022;9.338;2022-07-29T08:09:30;24.10;1.00
20231;DHT22;10274;49.022;9.338;2022-07-29T08:11:58;24.20;99.90
20231;DHT22;10274;49.022;9.338;2022-07-29T08:14:28;24.30;99.90
20231;DHT22;10274;49.022;9.338;2022-07-29T08:16:54;24.20;99.90
20231;DHT22;10274;49.022;9.338;2022-07-29T08:19:21;24.40;99.90
20231;DHT22;10274;49.022;9.338;2022-07-29T08:21:48;25.50;99.90
20231;DHT22;10274;49.022;9.338;2022-07-29T08:24:15;26.10;1.00
20231;DHT22;10274;49.022;9.338;2022-07-29T08:27:00;25.60;1.00
20231;DHT22;10274;49.022;9.338;2022-07-29T08:29:27;26.40;99.90
20231;DHT22;10274;49.022;9.338;2022-07-29T08:31:54;27.50;99.90
20231;DHT22;10274;49.022;9.338;2022-07-29T08:34:21;27.60;1.00
20231;DHT22;10274;49.022;9.338;2022-07-29T08:36:48;27.90;1.00
20231;DHT22;10274;49.022;9.338;2022-07-29T08:39:15;28.30;1.00
20231;DHT22;10274;49.022;9.338;2022-07-29T08:41:41;28.20;1.00
20231;DHT22;10274;49.022;9.338;2022-07-29T08:44:10;28.70;99.90
20231;DHT22;10274;49.022;9.338;2022-07-29T08:46:37;29.20;1.00
20231;DHT22;10274;49.022;9.338;2022-07-29T08:49:04;29.80;1.00
20231;DHT22;10274;49.022;9.338;2022-07-29T08:51:33;29.70;1.00
20231;DHT22;10274;49.022;9.338;2022-07-29T08:54:06;28.80;99.90
20231;DHT22;10274;49.022;9.338;2022-07-29T08:56:34;27.90;1.00
20231;DHT22;10274;49.022;9.338;2022-07-29T08:59:03;27.40;1.00
20231;DHT22;10274;49.022;9.338;2022-07-29T09:01:33;27.10;99.90
20231;DHT22;10274;49.022;9.338;2022-07-29T09:04:02;27.10;99.90
20231;DHT22;10274;49.022;9.338;2022-07-29T09:06:34;26.40;1.00
20231;DHT22;10274;49.022;9.338;2022-07-29T09:09:03;27.00;1.00
20231;DHT22;10274;49.022;9.338;2022-07-29T09:11:32;26.50;1.00
20231;DHT22;10274;49.022;9.338;2022-07-29T09:13:59;26.10;99.90
20231;DHT22;10274;49.022;9.338;2022-07-29T09:16:25;26.50;1.00
20231;DHT22;10274;49.022;9.338;2022-07-29T09:18:53;26.70;99.90
20231;DHT22;10274;49.022;9.338;2022-07-29T09:21:20;27.70;99.90
20231;DHT22;10274;49.022;9.338;2022-07-29T09:24:19;27.60;99.90
20231;DHT22;10274;49.022;9.338;2022-07-29T09:26:46;28.10;1.00
20231;DHT22;10274;49.022;9.338;2022-07-29T09:29:15;28.10;1.00
20231;DHT22;10274;49.022;9.338;2022-07-29T09:31:44;28.90;1.00
20231;DHT22;10274;49.022;9.338;2022-07-29T09:34:14;29.20;1.00
20231;DHT22;10274;49.022;9.338;2022-07-29T09:36:42;29.60;1.00
20231;DHT22;10274;49.022;9.338;2022-07-29T09:39:09;28.90;1.00
20231;DHT22;10274;49.022;9.338;2022-07-29T09:41:47;28.80;1.00
20231;DHT22;10274;49.022;9.338;2022-07-29T09:44:14;29.10;99.90
20231;DHT22;10274;49.022;9.338;2022-07-29T09:46:58;30.00;99.90
20231;DHT22;10274;49.022;9.338;2022-07-29T09:49:32;30.10;99.90
20231;DHT22;10274;49.022;9.338;2022-07-29T09:52:02;30.20;1.00
20231;DHT22;10274;49.022;9.338;2022-07-29T09:54:29;29.60;1.00
20231;DHT22;10274;49.022;9.338;2022-07-29T09:57:02;30.70;1.00
20231;DHT22;10274;49.022;9.338;2022-07-29T09:59:29;31.50;1.00
20231;DHT22;10274;49.022;9.338;2022-07-29T10:01:56;30.40;1.00
20231;DHT22;10274;49.022;9.338;2022-07-29T10:04:23;30.40;1.00
20231;DHT22;10274;49.022;9.338;2022-07-29T10:06:58;31.00;1.00
20231;DHT22;10274;49.022;9.338;2022-07-29T10:09:26;30.80;1.00
20231;DHT22;10274;49.022;9.338;2022-07-29T10:12:07;31.10;1.00
20231;DHT22;10274;49.022;9.338;2022-07-29T10:14:35;30.80;99.90
20231;DHT22;10274;49.022;9.338;2022-07-29T10:17:03;31.00;99.90
20231;DHT22;10274;49.022;9.338;2022-07-29T10:19:31;30.90;99.90
20231;DHT22;10274;49.022;9.338;2022-07-29T10:22:01;30.10;99.90
20231;DHT22;10274;49.022;9.338;2022-07-29T10:24:29;30.60;99.90
20231;DHT22;10274;49.022;9.338;2022-07-29T10:26:57;31.60;99.90
20231;DHT22;10274;49.022;9.338;2022-07-29T10:29:25;31.00;99.90
20231;DHT22;10274;49.022;9.338;2022-07-29T10:32:09;31.00;99.90
20231;DHT22;10274;49.022;9.338;2022-07-29T10:35:06;31.80;99.90
20231;DHT22;10274;49.022;9.338;2022-07-29T10:37:46;31.70;99.90
20231;DHT22;10274;49.022;9.338;2022-07-29T10:40:26;32.00;99.90
20231;DHT22;10274;49.022;9.338;2022-07-29T10:43:17;31.60;99.90
20231;DHT22;10274;49.022;9.338;2022-07-29T10:45:47;30.80;99.90
20231;DHT22;10274;49.022;9.338;2022-07-29T10:48:14;31.00;99.90
20231;DHT22;10274;49.022;9.338;2022-07-29T10:50:55;32.20;99.90
20231;DHT22;10274;49.022;9.338;2022-07-29T10:53:23;31.40;99.90
20231;DHT22;10274;49.022;9.338;2022-07-29T10:55:51;30.80;99.90
20231;DHT22;10274;49.022;9.338;2022-07-29T10:58:19;30.50;99.90
20231;DHT22;10274;49.022;9.338;2022-07-29T11:00:46;30.40;99.90
20231;DHT22;10274;49.022;9.338;2022-07-29T11:03:46;30.20;99.90
20231;DHT22;10274;49.022;9.338;2022-07-29T11:06:14;28.90;99.90
20231;DHT22;10274;49.022;9.338;2022-07-29T11:08:42;28.30;99.90
20231;DHT22;10274;49.022;9.338;2022-07-29T11:11:36;29.60;99.90
20231;DHT22;10274;49.022;9.338;2022-07-29T11:14:06;30.20;99.90
20231;DHT22;10274;49.022;9.338;2022-07-29T11:16:57;30.70;99.90
20231;DHT22;10274;49.022;9.338;2022-07-29T11:19:24;29.80;99.90
20231;DHT22;10274;49.022;9.338;2022-07-29T11:21:51;30.60;99.90
20231;DHT22;10274;49.022;9.338;2022-07-29T11:24:21;31.30;99.90
20231;DHT22;10274;49.022;9.338;2022-07-29T11:27:22;30.40;99.90
20231;DHT22;10274;49.022;9.338;2022-07-29T11:29:51;30.30;99.90
20231;DHT22;10274;49.022;9.338;2022-07-29T11:32:18;31.10;99.90
20231;DHT22;10274;49.022;9.338;2022-07-29T11:34:47;31.30;99.90
20231;DHT22;10274;49.022;9.338;2022-07-29T11:37:18;31.90;99.90
20231;DHT22;10274;49.022;9.338;2022-07-29T11:42:44;30.10;52.40
20231;DHT22;10274;49.022;9.338;2022-07-29T11:45:13;29.00;18.70
20231;DHT22;10274;49.022;9.338;2022-07-29T11:47:47;28.90;99.90
20231;DHT22;10274;49.022;9.338;2022-07-29T11:50:16;29.10;99.90
20231;DHT22;10274;49.022;9.338;2022-07-29T11:52:45;29.00;99.90
20231;DHT22;10274;49.022;9.338;2022-07-29T11:55:15;29.10;69.70
20231;DHT22;10274;49.022;9.338;2022-07-29T11:57:46;29.60;99.90
20231;DHT22;10274;49.022;9.338;2022-07-29T12:00:25;29.90;35.10
20231;DHT22;10274;49.022;9.338;2022-07-29T12:02:52;30.40;1.00
20231;DHT22;10274;49.022;9.338;2022-07-29T12:05:20;30.20;1.00
20231;DHT22;10274;49.022;9.338;2022-07-29T12:07:48;30.20;35.30
20231;DHT22;10274;49.022;9.338;2022-07-29T12:10:16;30.00;1.00
20231;DHT22;10274;49.022;9.338;2022-07-29T12:12:42;30.80;1.00
20231;DHT22;10274;49.022;9.338;2022-07-29T12:15:18;30.70;2.50
20231;DHT22;10274;49.022;9.338;2022-07-29T12:17:46;30.50;1.00
20231;DHT22;10274;49.022;9.338;2022-07-29T12:20:14;30.30;44.30
20231;DHT22;10274;49.022;9.338;2022-07-29T12:22:48;30.00;33.30
20231;DHT22;10274;49.022;9.338;2022-07-29T12:25:16;29.30;1.00
20231;DHT22;10274;49.022;9.338;2022-07-29T12:27:44;29.20;1.00
20231;DHT22;10274;49.022;9.338;2022-07-29T12:30:13;28.90;1.00
20231;DHT22;10274;49.022;9.338;2022-07-29T12:32:42;29.00;17.70
20231;DHT22;10274;49.022;9.338;2022-07-29T12:35:11;28.70;1.00
20231;DHT22;10274;49.022;9.338;2022-07-29T12:37:41;28.60;1.00
20231;DHT22;10274;49.022;9.338;2022-07-29T12:40:09;28.80;1.00
20231;DHT22;10274;49.022;9.338;2022-07-29T12:42:38;29.20;1.00
20231;DHT22;10274;49.022;9.338;2022-07-29T12:45:06;29.40;1.00
20231;DHT22;10274;49.022;9.338;2022-07-29T12:47:33;29.10;1.00
20231;DHT22;10274;49.022;9.338;2022-07-29T12:50:17;29.30;1.00
20231;DHT22;10274;49.022;9.338;2022-07-29T12:52:45;29.00;1.00
20231;DHT22;10274;49.022;9.338;2022-07-29T12:55:12;28.60;1.00
20231;DHT22;10274;49.022;9.338;2022-07-29T12:57:51;28.40;1.00
20231;DHT22;10274;49.022;9.338;2022-07-29T13:00:23;28.50;1.00
20231;DHT22;10274;49.022;9.338;2022-07-29T13:02:55;28.40;90.70
20231;DHT22;10274;49.022;9.338;2022-07-29T13:05:22;28.40;93.40
20231;DHT22;10274;49.022;9.338;2022-07-29T13:07:49;28.40;84.50
20231;DHT22;10274;49.022;9.338;2022-07-29T13:10:17;28.10;26.70
20231;DHT22;10274;49.022;9.338;2022-07-29T13:13:06;28.10;61.90
20231;DHT22;10274;49.022;9.338;2022-07-29T13:15:35;28.30;15.70
20231;DHT22;10274;49.022;9.338;2022-07-29T13:18:02;28.30;1.40
20231;DHT22;10274;49.022;9.338;2022-07-29T13:20:29;28.50;11.10
20231;DHT22;10274;49.022;9.338;2022-07-29T13:22:56;28.40;53.20
20231;DHT22;10274;49.022;9.338;2022-07-29T13:25:25;27.90;42.10
20231;DHT22;10274;49.022;9.338;2022-07-29T13:27:52;28.10;84.20
20231;DHT22;10274;49.022;9.338;2022-07-29T13:30:22;27.90;98.20
20231;DHT22;10274;49.022;9.338;2022-07-29T13:32:49;27.30;95.30
20231;DHT22;10274;49.022;9.338;2022-07-29T13:35:17;26.80;99.90
20231;DHT22;10274;49.022;9.338;2022-07-29T13:37:44;27.00;99.90
20231;DHT22;10274;49.022;9.338;2022-07-29T13:40:12;26.90;99.90
20231;DHT22;10274;49.022;9.338;2022-07-29T13:42:39;26.60;99.90
20231;DHT22;10274;49.022;9.338;2022-07-29T13:45:07;26.50;99.90
20231;DHT22;10274;49.022;9.338;2022-07-29T13:47:36;26.30;99.90
20231;DHT22;10274;49.022;9.338;2022-07-29T13:50:05;26.40;1.00
20231;DHT22;10274;49.022;9.338;2022-07-29T13:52:33;26.30;99.90
20231;DHT22;10274;49.022;9.338;2022-07-29T13:55:00;26.50;99.90
20231;DHT22;10274;49.022;9.338;2022-07-29T13:57:27;26.50;99.90
20231;DHT22;10274;49.022;9.338;2022-07-29T13:59:54;26.40;99.90
20231;DHT22;10274;49.022;9.338;2022-07-29T14:02:21;26.50;99.90
20231;DHT22;10274;49.022;9.338;2022-07-29T14:04:49;26.40;99.90
20231;DHT22;10274;49.022;9.338;2022-07-29T14:07:16;26.40;99.90
20231;DHT22;10274;49.022;9.338;2022-07-29T14:09:43;26.50;99.90
20231;DHT22;10274;49.022;9.338;2022-07-29T14:12:10;26.50;99.90
20231;DHT22;10274;49.022;9.338;2022-07-29T14:14:37;26.40;99.90
20231;DHT22;10274;49.022;9.338;2022-07-29T14:17:04;26.40;99.90
20231;DHT22;10274;49.022;9.338;2022-07-29T14:19:32;26.30;99.90
20231;DHT22;10274;49.022;9.338;2022-07-29T14:22:02;26.10;99.90
20231;DHT22;10274;49.022;9.338;2022-07-29T14:24:29;26.10;99.90
20231;DHT22;10274;49.022;9.338;2022-07-29T14:26:56;25.80;99.90
20231;DHT22;10274;49.022;9.338;2022-07-29T14:29:22;25.80;99.90
20231;DHT22;10274;49.022;9.338;2022-07-29T14:31:49;25.50;99.90
20231;DHT22;10274;49.022;9.338;2022-07-29T14:34:16;25.50;99.90
20231;DHT22;10274;49.022;9.338;2022-07-29T14:36:43;25.50;99.90
20231;DHT22;10274;49.022;9.338;2022-07-29T14:39:11;25.50;99.90
20231;DHT22;10274;49.022;9.338;2022-07-29T14:41:38;25.60;99.90
20231;DHT22;10274;49.022;9.338;2022-07-29T14:44:04;25.50;99.90
20231;DHT22;10274;49.022;9.338;2022-07-29T14:46:31;25.60;99.90
20231;DHT22;10274;49.022;9.338;2022-07-29T14:48:58;25.40;99.90
20231;DHT22;10274;49.022;9.338;2022-07-29T14:51:24;25.50;99.90
20231;DHT22;10274;49.022;9.338;2022-07-29T14:53:51;25.60;99.90
20231;DHT22;10274;49.022;9.338;2022-07-29T14:56:19;25.50;99.90
20231;DHT22;10274;49.022;9.338;2022-07-29T14:58:46;25.60;99.90
20231;DHT22;10274;49.022;9.338;2022-07-29T15:01:13;25.60;99.90
20231;DHT22;10274;49.022;9.338;2022-07-29T15:03:39;25.60;99.90
20231;DHT22;10274;49.022;9.338;2022-07-29T15:06:06;25.70;99.90
20231;DHT22;10274;49.022;9.338;2022-07-29T15:08:33;25.60;99.90
20231;DHT22;10274;49.022;9.338;2022-07-29T15:10:59;25.60;99.90
20231;DHT22;10274;49.022;9.338;2022-07-29T15:13:27;25.60;99.90
20231;DHT22;10274;49.022;9.338;2022-07-29T15:15:55;25.60;99.90
20231;DHT22;10274;49.022;9.338;2022-07-29T15:18:21;25.60;99.90
20231;DHT22;10274;49.022;9.338;2022-07-29T15:20:48;25.50;99.90
20231;DHT22;10274;49.022;9.338;2022-07-29T15:23:15;25.50;99.90
20231;DHT22;10274;49.022;9.338;2022-07-29T15:25:41;25.60;99.90
20231;DHT22;10274;49.022;9.338;2022-07-29T15:28:08;25.60;99.90
20231;DHT22;10274;49.022;9.338;2022-07-29T15:30:36;25.50;99.90
20231;DHT22;10274;49.022;9.338;2022-07-29T15:33:06;25.50;99.90
20231;DHT22;10274;49.022;9.338;2022-07-29T15:35:33;25.60;99.90
20231;DHT22;10274;49.022;9.338;2022-07-29T15:38:00;25.60;99.90
20231;DHT22;10274;49.022;9.338;2022-07-29T15:40:27;25.60;99.90
20231;DHT22;10274;49.022;9.338;2022-07-29T15:42:53;25.70;99.90
20231;DHT22;10274;49.022;9.338;2022-07-29T15:45:20;25.60;99.90
20231;DHT22;10274;49.022;9.338;2022-07-29T15:47:48;25.70;99.90
20231;DHT22;10274;49.022;9.338;2022-07-29T15:50:15;25.80;99.90
20231;DHT22;10274;49.022;9.338;2022-07-29T15:52:42;25.80;99.90